createdAt,value
2023-05-10T00:02:29.167Z,12.14
2023-05-10T00:05:32.845Z,12.03
2023-05-10T00:08:35.335Z,12.06
2023-05-10T00:11:38.148Z,12.05
2023-05-10T00:14:40.760Z,12.06
2023-05-10T00:17:43.509Z,11.99
2023-05-10T00:20:47.107Z,11.96
2023-05-10T00:23:50.035Z,11.71
2023-05-10T00:26:52.594Z,11.68
2023-05-10T00:29:55.604Z,11.46
2023-05-10T00:32:58.123Z,11.27
2023-05-10T00:36:00.992Z,11.13
2023-05-10T00:39:04.638Z,11.18
2023-05-10T00:42:07.539Z,11.12
2023-05-10T00:45:10.567Z,10.98
2023-05-10T00:48:14.162Z,10.80
2023-05-10T00:51:16.849Z,10.61
2023-05-10T00:54:20.408Z,10.45
2023-05-10T00:57:23.459Z,10.49
2023-05-10T01:00:26.909Z,10.29
2023-05-10T01:03:30.170Z,10.18
2023-05-10T01:06:33.303Z,10.12
2023-05-10T01:09:36.002Z,10.02
2023-05-10T01:12:41.907Z,9.93
2023-05-10T01:15:45.835Z,9.90
2023-05-10T01:18:49.847Z,9.84
2023-05-10T01:22:21.013Z,9.80
2023-05-10T01:25:42.741Z,9.81
2023-05-10T01:29:12.713Z,9.77
2023-05-10T01:32:26.111Z,9.83
2023-05-10T01:35:31.566Z,9.86
2023-05-10T01:38:43.578Z,9.99
2023-05-10T01:41:55.634Z,10.05
2023-05-10T01:45:14.100Z,10.10
2023-05-10T01:48:18.714Z,10.12
2023-05-10T01:51:26.156Z,10.12
2023-05-10T01:54:30.408Z,10.17
2023-05-10T01:57:36.118Z,10.20
2023-05-10T02:00:41.666Z,10.32
2023-05-10T02:03:45.401Z,10.30
2023-05-10T02:06:49.056Z,10.27
2023-05-10T02:09:52.447Z,10.27
2023-05-10T02:12:59.367Z,10.39
2023-05-10T02:16:04.398Z,10.52
2023-05-10T02:19:09.576Z,10.72
2023-05-10T02:22:13.579Z,11.11
2023-05-10T02:25:17.044Z,11.18
2023-05-10T02:28:21.142Z,11.23
2023-05-10T02:31:24.220Z,11.32
2023-05-10T02:34:28.543Z,11.42
2023-05-10T02:37:33.305Z,11.41
2023-05-10T02:40:37.842Z,11.39
2023-05-10T02:43:41.827Z,11.37
2023-05-10T02:46:44.769Z,11.41
2023-05-10T02:49:48.410Z,11.51
2023-05-10T02:52:55.549Z,11.47
2023-05-10T02:56:02.305Z,11.52
2023-05-10T02:59:05.193Z,11.62
2023-05-10T03:02:08.536Z,11.68
2023-05-10T03:05:11.117Z,11.67
2023-05-10T03:08:14.169Z,11.60
2023-05-10T03:11:41.251Z,11.65
2023-05-10T03:14:57.073Z,11.66
2023-05-10T03:18:06.563Z,11.56
2023-05-10T03:21:13.438Z,11.49
2023-05-10T03:24:19.513Z,11.42
2023-05-10T03:27:26.299Z,11.34
2023-05-10T03:30:30.443Z,11.28
2023-05-10T03:33:33.498Z,11.19
2023-05-10T03:36:36.172Z,11.06
2023-05-10T03:39:39.203Z,11.08
2023-05-10T03:42:42.436Z,11.15
2023-05-10T03:45:45.301Z,11.17
2023-05-10T03:48:47.904Z,11.16
2023-05-10T03:51:50.831Z,11.25
2023-05-10T03:54:53.531Z,11.31
2023-05-10T03:57:56.558Z,11.28
2023-05-10T04:00:59.410Z,11.12
2023-05-10T04:04:02.502Z,11.02
2023-05-10T04:07:07.212Z,11.09
2023-05-10T04:10:10.574Z,11.14
2023-05-10T04:13:13.160Z,11.34
2023-05-10T04:16:16.099Z,11.44
2023-05-10T04:19:18.639Z,11.50
2023-05-10T04:22:21.832Z,11.50
2023-05-10T04:25:24.336Z,11.48
2023-05-10T04:28:28.243Z,11.56
2023-05-10T04:31:30.743Z,11.41
2023-05-10T04:34:35.159Z,11.45
2023-05-10T04:37:37.729Z,11.36
2023-05-10T04:40:40.558Z,11.41
2023-05-10T04:43:43.106Z,11.34
2023-05-10T04:46:46.085Z,11.31
2023-05-10T04:49:48.646Z,11.20
2023-05-10T04:52:52.731Z,11.10
2023-05-10T04:55:55.955Z,11.18
2023-05-10T04:58:58.911Z,11.30
2023-05-10T05:02:02.172Z,11.44
2023-05-10T05:05:05.589Z,11.52
2023-05-10T05:08:08.207Z,11.67
2023-05-10T05:11:11.423Z,11.74
2023-05-10T05:14:14.005Z,11.82
2023-05-10T05:17:17.165Z,11.82
2023-05-10T05:20:20.109Z,12.00
2023-05-10T05:23:25.800Z,11.97
2023-05-10T05:26:28.530Z,11.76
2023-05-10T05:29:31.695Z,11.94
2023-05-10T05:32:34.377Z,12.21
2023-05-10T05:35:37.170Z,12.28
2023-05-10T05:38:39.660Z,12.54
2023-05-10T05:41:42.574Z,12.43
2023-05-10T05:44:45.464Z,12.68
2023-05-10T05:47:48.368Z,13.04
2023-05-10T05:50:51.158Z,13.06
2023-05-10T05:53:54.053Z,13.08
2023-05-10T05:56:59.836Z,13.08
2023-05-10T06:00:04.354Z,12.94
2023-05-10T06:03:15.293Z,12.92
2023-05-10T06:06:18.331Z,12.79
2023-05-10T06:09:20.842Z,12.89
2023-05-10T06:12:23.736Z,13.15
2023-05-10T06:15:27.070Z,13.21
2023-05-10T06:18:29.984Z,13.52
2023-05-10T06:21:32.454Z,13.52
2023-05-10T06:24:35.316Z,13.43
2023-05-10T06:27:38.119Z,13.52
2023-05-10T06:30:40.981Z,13.54
2023-05-10T06:33:43.531Z,13.90
2023-05-10T06:36:46.669Z,14.23
2023-05-10T06:39:49.496Z,14.13
2023-05-10T06:42:52.428Z,14.10
2023-05-10T06:45:55.233Z,14.13
2023-05-10T06:48:58.015Z,14.35
2023-05-10T06:52:00.734Z,14.93
2023-05-10T06:55:23.410Z,14.85
2023-05-10T06:58:25.918Z,14.73
2023-05-10T07:01:28.761Z,14.42
2023-05-10T07:04:31.383Z,13.85
2023-05-10T07:07:34.137Z,14.75
2023-05-10T07:10:36.807Z,14.86
2023-05-10T07:13:42.308Z,15.33
2023-05-10T07:16:45.665Z,16.57
2023-05-10T07:19:48.720Z,16.33
2023-05-10T07:22:52.488Z,17.17
2023-05-10T07:25:55.626Z,16.94
2023-05-10T07:28:58.159Z,16.61
2023-05-10T07:32:01.382Z,16.57
2023-05-10T07:35:04.426Z,17.79
2023-05-10T07:38:07.365Z,17.70
2023-05-10T07:41:10.664Z,17.99
2023-05-10T07:44:13.467Z,18.83
2023-05-10T07:47:16.013Z,20.07
2023-05-10T07:50:19.226Z,20.22
2023-05-10T07:53:22.200Z,20.82
2023-05-10T07:56:30.499Z,20.48
2023-05-10T07:59:34.598Z,20.51
2023-05-10T08:02:37.905Z,20.19
2023-05-10T08:05:41.586Z,18.48
2023-05-10T08:08:44.435Z,19.43
2023-05-10T08:11:47.295Z,19.31
2023-05-10T08:14:49.807Z,18.10
2023-05-10T08:17:53.563Z,18.83
2023-05-10T08:20:56.234Z,17.81
2023-05-10T08:23:59.211Z,17.23
2023-05-10T08:27:01.875Z,16.95
2023-05-10T08:30:05.060Z,18.55
2023-05-10T08:33:07.761Z,19.04
2023-05-10T08:36:10.861Z,19.16
2023-05-10T08:39:22.985Z,18.01
2023-05-10T08:42:36.845Z,18.62
2023-05-10T08:45:42.479Z,19.17
2023-05-10T08:48:50.316Z,20.10
2023-05-10T08:51:56.188Z,20.03
2023-05-10T08:54:59.294Z,21.64
2023-05-10T08:58:01.853Z,22.04
2023-05-10T09:01:05.963Z,20.23
2023-05-10T09:04:08.842Z,19.37
2023-05-10T09:07:12.339Z,18.93
2023-05-10T09:10:16.280Z,19.21
2023-05-10T09:13:19.878Z,19.39
2023-05-10T09:16:22.918Z,22.40
2023-05-10T09:19:25.772Z,23.67
2023-05-10T09:22:28.457Z,22.84
2023-05-10T09:25:31.547Z,21.63
2023-05-10T09:28:58.918Z,21.88
2023-05-10T09:32:01.917Z,23.45
2023-05-10T09:35:12.259Z,22.73
2023-05-10T09:38:15.332Z,20.83
2023-05-10T09:41:19.984Z,22.99
2023-05-10T09:44:23.008Z,24.12
2023-05-10T09:47:26.615Z,24.43
2023-05-10T09:50:31.350Z,24.49
2023-05-10T09:53:34.195Z,23.88
2023-05-10T09:56:40.252Z,23.97
2023-05-10T09:59:44.472Z,26.25
2023-05-10T10:03:07.434Z,26.72
2023-05-10T10:06:18.650Z,27.19
2023-05-10T10:09:26.560Z,26.00
2023-05-10T10:12:29.731Z,25.90
2023-05-10T10:15:34.112Z,24.90
2023-05-10T10:18:41.000Z,24.85
2023-05-10T10:21:43.715Z,22.50
2023-05-10T10:24:46.541Z,24.58
2023-05-10T10:27:57.669Z,24.74
2023-05-10T10:31:16.031Z,24.40
2023-05-10T10:34:29.553Z,23.48
2023-05-10T10:37:46.355Z,23.48
2023-05-10T10:41:02.507Z,22.06
2023-05-10T10:44:24.661Z,23.25
2023-05-10T10:47:33.984Z,23.13
2023-05-10T10:50:45.864Z,22.29
2023-05-10T10:53:49.263Z,21.44
2023-05-10T10:57:12.580Z,23.28
2023-05-10T11:00:36.596Z,25.90
2023-05-10T11:03:39.983Z,25.64
2023-05-10T11:06:43.549Z,27.66
2023-05-10T11:09:48.632Z,29.83
2023-05-10T11:13:04.019Z,30.84
2023-05-10T11:16:18.152Z,26.74
2023-05-10T11:19:21.106Z,22.54
2023-05-10T11:22:26.735Z,21.48
2023-05-10T11:25:29.482Z,23.81
2023-05-10T11:28:33.033Z,27.60
2023-05-10T11:31:36.132Z,27.57
2023-05-10T11:34:39.763Z,23.44
2023-05-10T11:37:44.771Z,22.25
2023-05-10T11:40:47.766Z,22.52
2023-05-10T11:43:52.127Z,23.83
2023-05-10T11:46:55.569Z,23.97
2023-05-10T11:49:58.857Z,22.77
2023-05-10T11:53:02.134Z,22.19
2023-05-10T11:56:06.259Z,21.71
2023-05-10T11:59:09.430Z,21.19
2023-05-10T12:02:13.613Z,20.45
2023-05-10T12:05:17.365Z,20.10
2023-05-10T12:08:28.625Z,20.14
2023-05-10T12:11:31.436Z,20.25
2023-05-10T12:14:36.403Z,20.52
2023-05-10T12:17:43.333Z,21.72
2023-05-10T12:20:46.062Z,22.26
2023-05-10T12:23:53.801Z,21.78
2023-05-10T12:26:56.257Z,20.90
2023-05-10T12:33:15.916Z,20.69
2023-05-10T12:36:24.692Z,21.32
2023-05-10T12:39:27.301Z,21.80
2023-05-10T12:42:30.527Z,22.13
2023-05-10T12:45:33.141Z,22.20
2023-05-10T12:48:37.801Z,26.88
2023-05-10T12:51:40.261Z,26.32
2023-05-10T12:54:43.033Z,24.61
2023-05-10T12:57:45.443Z,22.08
2023-05-10T13:00:48.467Z,21.63
2023-05-10T13:03:51.556Z,21.21
2023-05-10T13:06:56.508Z,21.13
2023-05-10T13:09:58.981Z,21.29
2023-05-10T13:13:02.308Z,22.57
2023-05-10T13:16:05.198Z,22.89
2023-05-10T13:19:08.060Z,22.57
2023-05-10T13:22:10.832Z,22.75
2023-05-10T13:25:13.965Z,22.01
2023-05-10T13:28:16.544Z,23.57
2023-05-10T13:31:19.369Z,25.42
2023-05-10T13:34:21.837Z,25.18
2023-05-10T13:37:24.639Z,23.57
2023-05-10T13:40:27.170Z,22.27
2023-05-10T13:43:30.756Z,22.73
2023-05-10T13:46:33.344Z,23.14
2023-05-10T13:49:36.134Z,23.22
2023-05-10T13:52:38.656Z,23.21
2023-05-10T13:55:41.579Z,25.99
2023-05-10T13:58:44.227Z,24.33
2023-05-10T14:01:47.010Z,23.72
2023-05-10T14:04:49.897Z,25.20
2023-05-10T14:07:52.626Z,29.24
2023-05-10T14:10:57.410Z,30.10
2023-05-10T14:13:59.869Z,29.57
2023-05-10T14:17:02.942Z,30.26
2023-05-10T14:20:06.113Z,26.41
2023-05-10T14:23:11.254Z,25.68
2023-05-10T14:26:14.468Z,24.16
2023-05-10T14:29:17.249Z,23.09
2023-05-10T14:32:19.806Z,23.23
2023-05-10T14:35:22.912Z,23.79
2023-05-10T14:38:25.572Z,23.72
2023-05-10T14:41:28.625Z,22.72
2023-05-10T14:44:31.597Z,22.83
2023-05-10T14:47:34.356Z,22.31
2023-05-10T14:50:37.480Z,22.49
2023-05-10T14:53:40.498Z,22.27
2023-05-10T14:56:42.975Z,22.36
2023-05-10T14:59:45.764Z,21.75
2023-05-10T15:02:49.369Z,20.44
2023-05-10T15:05:54.053Z,20.24
2023-05-10T15:08:56.537Z,20.20
2023-05-10T15:11:59.308Z,19.88
2023-05-10T15:15:01.865Z,19.28
2023-05-10T15:18:06.668Z,19.47
2023-05-10T15:21:09.210Z,19.63
2023-05-10T15:24:11.989Z,19.64
2023-05-10T15:27:14.538Z,19.55
2023-05-10T15:30:17.395Z,19.39
2023-05-10T15:33:19.933Z,19.20
2023-05-10T15:36:23.107Z,19.23
2023-05-10T15:39:25.708Z,19.08
2023-05-10T15:42:28.545Z,19.19
2023-05-10T15:45:31.212Z,19.09
2023-05-10T15:48:33.978Z,18.87
2023-05-10T15:51:36.831Z,18.89
2023-05-10T15:54:39.966Z,18.88
2023-05-10T15:57:43.686Z,18.87
2023-05-10T16:00:46.494Z,18.74
2023-05-10T16:03:48.932Z,18.82
2023-05-10T16:06:51.795Z,18.89
2023-05-10T16:09:54.285Z,18.93
2023-05-10T16:12:57.146Z,19.76
2023-05-10T16:16:00.229Z,19.79
2023-05-10T16:19:04.129Z,19.04
2023-05-10T16:22:07.104Z,18.97
2023-05-10T16:25:12.632Z,19.31
2023-05-10T16:28:15.939Z,19.47
2023-05-10T16:31:19.896Z,19.39
2023-05-10T16:34:24.349Z,19.26
2023-05-10T16:37:28.576Z,19.10
2023-05-10T16:40:31.434Z,18.94
2023-05-10T16:43:34.229Z,18.75
2023-05-10T16:46:36.919Z,18.61
2023-05-10T16:49:40.039Z,18.53
2023-05-10T16:52:42.650Z,18.47
2023-05-10T16:55:45.618Z,18.24
2023-05-10T16:58:51.563Z,18.20
2023-05-10T17:01:55.001Z,18.04
2023-05-10T17:04:57.718Z,17.87
2023-05-10T17:08:00.873Z,17.73
2023-05-10T17:11:04.559Z,17.65
2023-05-10T17:14:07.388Z,17.46
2023-05-10T17:17:10.100Z,17.40
2023-05-10T17:20:13.055Z,17.30
2023-05-10T17:23:15.465Z,17.21
2023-05-10T17:26:18.289Z,17.03
2023-05-10T17:29:21.226Z,17.00
2023-05-10T17:32:24.090Z,16.99
2023-05-10T17:35:26.862Z,16.92
2023-05-10T17:38:29.666Z,16.81
2023-05-10T17:41:32.239Z,16.71
2023-05-10T17:44:35.031Z,16.75
2023-05-10T17:47:38.091Z,16.70
2023-05-10T17:50:43.903Z,16.62
2023-05-10T17:53:46.558Z,16.54
2023-05-10T17:56:49.290Z,16.48
2023-05-10T17:59:51.737Z,16.34
2023-05-10T18:02:54.607Z,16.24
2023-05-10T18:05:57.708Z,16.26
2023-05-10T18:09:00.218Z,16.15
2023-05-10T18:12:03.541Z,16.04
2023-05-10T18:15:06.825Z,15.86
2023-05-10T18:18:10.954Z,15.75
2023-05-10T18:21:13.579Z,15.61
2023-05-10T18:24:16.928Z,15.60
2023-05-10T18:27:25.927Z,15.56
2023-05-10T18:30:29.475Z,15.51
2023-05-10T18:33:32.281Z,15.51
2023-05-10T18:36:35.402Z,15.49
2023-05-10T18:39:38.297Z,15.56
2023-05-10T18:42:46.619Z,15.39
2023-05-10T18:45:51.054Z,15.34
2023-05-10T18:48:54.933Z,15.19
2023-05-10T18:52:00.600Z,15.10
2023-05-10T18:55:06.244Z,15.04
2023-05-10T18:58:09.289Z,15.02
2023-05-10T19:01:12.612Z,15.02
2023-05-10T19:04:15.648Z,14.93
2023-05-10T19:07:18.991Z,14.86
2023-05-10T19:10:22.330Z,14.76
2023-05-10T19:13:27.658Z,14.75
2023-05-10T19:16:30.889Z,14.79
2023-05-10T19:19:34.157Z,14.84
2023-05-10T19:22:54.193Z,14.80
2023-05-10T19:26:02.743Z,14.87
2023-05-10T19:29:06.111Z,14.83
2023-05-10T19:32:09.501Z,14.86
2023-05-10T19:35:13.255Z,14.75
2023-05-10T19:38:16.977Z,14.67
2023-05-10T19:41:19.781Z,14.67
2023-05-10T19:44:23.092Z,14.60
2023-05-10T19:47:25.928Z,14.51
2023-05-10T19:50:29.181Z,14.43
2023-05-10T19:53:32.553Z,14.37
2023-05-10T19:56:38.522Z,14.34
2023-05-10T19:59:41.258Z,14.29
2023-05-10T20:02:44.492Z,14.27
2023-05-10T20:05:47.538Z,14.35
2023-05-10T20:08:50.979Z,14.39
2023-05-10T20:11:54.152Z,14.37
2023-05-10T20:14:57.014Z,14.35
2023-05-10T20:18:00.452Z,14.33
2023-05-10T20:21:03.148Z,14.34
2023-05-10T20:24:07.795Z,14.56
2023-05-10T20:27:10.579Z,14.58
2023-05-10T20:30:13.613Z,14.65
2023-05-10T20:33:16.560Z,14.62
2023-05-10T20:36:20.017Z,14.59
2023-05-10T20:39:22.972Z,14.63
2023-05-10T20:42:26.410Z,14.53
2023-05-10T20:45:29.390Z,14.49
2023-05-10T20:48:34.588Z,14.58
2023-05-10T20:51:37.228Z,14.49
2023-05-10T20:54:40.083Z,14.53
2023-05-10T20:57:42.568Z,14.44
2023-05-10T21:00:45.424Z,14.41
2023-05-10T21:03:48.088Z,14.49
2023-05-10T21:06:50.930Z,14.43
2023-05-10T21:09:53.544Z,14.38
2023-05-10T21:12:56.524Z,14.38
2023-05-10T21:15:59.037Z,14.35
2023-05-10T21:19:02.202Z,14.42
2023-05-10T21:22:05.250Z,14.36
2023-05-10T21:25:08.386Z,14.31
2023-05-10T21:28:11.050Z,14.32
2023-05-10T21:31:13.829Z,14.26
2023-05-10T21:34:17.967Z,14.33
2023-05-10T21:37:20.733Z,14.28
2023-05-10T21:40:24.049Z,14.15
2023-05-10T21:43:26.871Z,14.12
2023-05-10T21:46:29.382Z,14.13
2023-05-10T21:49:32.201Z,14.22
2023-05-10T21:52:34.691Z,14.20
2023-05-10T21:55:37.501Z,14.15
2023-05-10T21:58:39.974Z,14.15
2023-05-10T22:01:43.816Z,14.16
2023-05-10T22:04:46.802Z,14.17
2023-05-10T22:07:49.312Z,14.15
2023-05-10T22:10:52.181Z,14.12
2023-05-10T22:13:54.698Z,14.13
2023-05-10T22:16:58.057Z,14.12
2023-05-10T22:20:00.680Z,14.05
2023-05-10T22:23:03.595Z,14.05
2023-05-10T22:26:06.258Z,14.05
2023-05-10T22:29:09.049Z,14.10
2023-05-10T22:32:11.629Z,14.11
2023-05-10T22:35:14.380Z,14.14
2023-05-10T22:38:16.961Z,14.11
2023-05-10T22:41:19.740Z,14.11
2023-05-10T22:44:22.435Z,14.09
2023-05-10T22:47:25.620Z,14.04
2023-05-10T22:50:30.080Z,13.88
2023-05-10T22:53:32.858Z,13.68
2023-05-10T22:56:35.571Z,13.59
2023-05-10T22:59:38.560Z,13.47
2023-05-10T23:02:41.305Z,13.42
2023-05-10T23:05:44.004Z,13.29
2023-05-10T23:08:46.560Z,13.19
2023-05-10T23:11:49.343Z,13.07
2023-05-10T23:14:51.882Z,13.16
2023-05-10T23:17:54.745Z,13.13
2023-05-10T23:20:57.258Z,13.00
2023-05-10T23:24:00.115Z,12.98
2023-05-10T23:27:03.823Z,12.90
2023-05-10T23:30:07.248Z,12.86
2023-05-10T23:33:09.764Z,12.83
2023-05-10T23:36:12.586Z,13.02
2023-05-10T23:39:15.406Z,12.94
2023-05-10T23:42:18.243Z,13.07
2023-05-10T23:45:21.020Z,12.95
2023-05-10T23:48:24.411Z,12.87
2023-05-10T23:51:28.169Z,12.88
2023-05-10T23:54:30.969Z,12.81
2023-05-10T23:57:33.466Z,12.75
